sensor_id;sensor_type;location;lat;lon;timestamp;P1;durP1;ratioP1;P2;durP2;ratioP2
14181;SDS011;7171;50.936;6.764;2022-10-31T00:01:18;3.80;;;3.40;;
14181;SDS011;7171;50.936;6.764;2022-10-31T00:03:47;5.65;;;3.40;;
14181;SDS011;7171;50.936;6.764;2022-10-31T00:06:14;7.32;;;3.97;;
14181;SDS011;7171;50.936;6.764;2022-10-31T00:08:43;3.97;;;3.17;;
14181;SDS011;7171;50.936;6.764;2022-10-31T00:11:09;3.85;;;3.05;;
14181;SDS011;7171;50.936;6.764;2022-10-31T00:13:37;4.88;;;3.50;;
14181;SDS011;7171;50.936;6.764;2022-10-31T00:16:06;5.80;;;3.85;;
14181;SDS011;7171;50.936;6.764;2022-10-31T00:18:39;3.92;;;3.25;;
14181;SDS011;7171;50.936;6.764;2022-10-31T00:21:06;3.83;;;3.13;;
14181;SDS011;7171;50.936;6.764;2022-10-31T00:23:33;4.18;;;3.22;;
14181;SDS011;7171;50.936;6.764;2022-10-31T00:26:00;8.02;;;3.70;;
14181;SDS011;7171;50.936;6.764;2022-10-31T00:28:27;8.70;;;3.50;;
14181;SDS011;7171;50.936;6.764;2022-10-31T00:30:57;3.83;;;3.10;;
14181;SDS011;7171;50.936;6.764;2022-10-31T00:33:26;4.32;;;3.28;;
14181;SDS011;7171;50.936;6.764;2022-10-31T00:35:53;5.75;;;3.90;;
14181;SDS011;7171;50.936;6.764;2022-10-31T00:38:20;3.67;;;2.95;;
14181;SDS011;7171;50.936;6.764;2022-10-31T00:40:47;4.18;;;3.10;;
14181;SDS011;7171;50.936;6.764;2022-10-31T00:43:14;3.60;;;3.00;;
14181;SDS011;7171;50.936;6.764;2022-10-31T00:45:41;4.68;;;3.03;;
14181;SDS011;7171;50.936;6.764;2022-10-31T00:48:08;5.88;;;3.25;;
14181;SDS011;7171;50.936;6.764;2022-10-31T00:50:36;6.85;;;3.85;;
14181;SDS011;7171;50.936;6.764;2022-10-31T00:53:03;7.03;;;3.20;;
14181;SDS011;7171;50.936;6.764;2022-10-31T00:55:30;6.15;;;3.17;;
14181;SDS011;7171;50.936;6.764;2022-10-31T00:57:57;3.63;;;2.90;;
14181;SDS011;7171;50.936;6.764;2022-10-31T01:00:24;3.63;;;2.67;;
14181;SDS011;7171;50.936;6.764;2022-10-31T01:02:51;4.65;;;3.00;;
14181;SDS011;7171;50.936;6.764;2022-10-31T01:05:17;3.55;;;2.67;;
14181;SDS011;7171;50.936;6.764;2022-10-31T01:07:46;4.13;;;2.25;;
14181;SDS011;7171;50.936;6.764;2022-10-31T01:10:12;3.95;;;2.40;;
14181;SDS011;7171;50.936;6.764;2022-10-31T01:12:40;5.13;;;2.78;;
14181;SDS011;7171;50.936;6.764;2022-10-31T01:15:08;4.88;;;2.75;;
14181;SDS011;7171;50.936;6.764;2022-10-31T01:17:36;3.30;;;2.30;;
14181;SDS011;7171;50.936;6.764;2022-10-31T01:20:03;3.75;;;2.40;;
14181;SDS011;7171;50.936;6.764;2022-10-31T01:22:31;4.70;;;2.97;;
14181;SDS011;7171;50.936;6.764;2022-10-31T01:25:00;3.85;;;2.63;;
14181;SDS011;7171;50.936;6.764;2022-10-31T01:27:27;4.05;;;3.17;;
14181;SDS011;7171;50.936;6.764;2022-10-31T01:29:53;3.90;;;2.90;;
14181;SDS011;7171;50.936;6.764;2022-10-31T01:32:20;3.63;;;3.03;;
14181;SDS011;7171;50.936;6.764;2022-10-31T01:34:47;3.72;;;3.10;;
14181;SDS011;7171;50.936;6.764;2022-10-31T01:37:13;4.82;;;2.80;;
14181;SDS011;7171;50.936;6.764;2022-10-31T01:39:40;6.28;;;3.03;;
14181;SDS011;7171;50.936;6.764;2022-10-31T01:42:10;2.85;;;2.45;;
14181;SDS011;7171;50.936;6.764;2022-10-31T01:44:47;4.18;;;2.97;;
14181;SDS011;7171;50.936;6.764;2022-10-31T01:47:20;4.75;;;2.85;;
14181;SDS011;7171;50.936;6.764;2022-10-31T01:49:56;3.90;;;2.50;;
14181;SDS011;7171;50.936;6.764;2022-10-31T01:52:26;4.57;;;2.92;;
14181;SDS011;7171;50.936;6.764;2022-10-31T01:54:57;4.82;;;3.05;;
14181;SDS011;7171;50.936;6.764;2022-10-31T01:57:28;4.15;;;2.70;;
14181;SDS011;7171;50.936;6.764;2022-10-31T01:59:57;4.28;;;2.55;;
14181;SDS011;7171;50.936;6.764;2022-10-31T02:02:27;3.80;;;3.17;;
14181;SDS011;7171;50.936;6.764;2022-10-31T02:04:57;4.57;;;3.25;;
14181;SDS011;7171;50.936;6.764;2022-10-31T02:07:28;3.83;;;2.75;;
14181;SDS011;7171;50.936;6.764;2022-10-31T02:10:00;4.57;;;2.70;;
14181;SDS011;7171;50.936;6.764;2022-10-31T02:12:29;3.88;;;3.05;;
14181;SDS011;7171;50.936;6.764;2022-10-31T02:14:57;3.78;;;2.90;;
14181;SDS011;7171;50.936;6.764;2022-10-31T02:17:25;4.90;;;2.88;;
14181;SDS011;7171;50.936;6.764;2022-10-31T02:19:54;5.63;;;3.20;;
14181;SDS011;7171;50.936;6.764;2022-10-31T02:22:29;4.15;;;2.40;;
14181;SDS011;7171;50.936;6.764;2022-10-31T02:25:08;3.17;;;2.72;;
14181;SDS011;7171;50.936;6.764;2022-10-31T02:27:57;4.63;;;3.45;;
14181;SDS011;7171;50.936;6.764;2022-10-31T02:30:50;5.35;;;2.97;;
14181;SDS011;7171;50.936;6.764;2022-10-31T02:33:24;3.20;;;2.33;;
14181;SDS011;7171;50.936;6.764;2022-10-31T02:35:59;5.03;;;2.70;;
14181;SDS011;7171;50.936;6.764;2022-10-31T02:38:34;3.83;;;2.83;;
14181;SDS011;7171;50.936;6.764;2022-10-31T02:41:10;3.13;;;2.30;;
14181;SDS011;7171;50.936;6.764;2022-10-31T02:43:43;5.20;;;2.58;;
14181;SDS011;7171;50.936;6.764;2022-10-31T02:46:19;3.38;;;2.83;;
14181;SDS011;7171;50.936;6.764;2022-10-31T02:48:52;4.80;;;3.05;;
14181;SDS011;7171;50.936;6.764;2022-10-31T02:51:22;3.83;;;2.80;;
14181;SDS011;7171;50.936;6.764;2022-10-31T02:53:49;5.32;;;3.20;;
14181;SDS011;7171;50.936;6.764;2022-10-31T02:56:16;8.15;;;3.35;;
14181;SDS011;7171;50.936;6.764;2022-10-31T02:58:44;4.80;;;3.05;;
14181;SDS011;7171;50.936;6.764;2022-10-31T03:04:27;2.88;;;2.60;;
14181;SDS011;7171;50.936;6.764;2022-10-31T03:07:12;5.88;;;2.70;;
14181;SDS011;7171;50.936;6.764;2022-10-31T03:09:48;5.40;;;2.88;;
14181;SDS011;7171;50.936;6.764;2022-10-31T03:12:25;9.88;;;3.92;;
14181;SDS011;7171;50.936;6.764;2022-10-31T03:14:56;6.15;;;3.50;;
14181;SDS011;7171;50.936;6.764;2022-10-31T03:17:38;4.82;;;3.55;;
14181;SDS011;7171;50.936;6.764;2022-10-31T03:20:14;11.95;;;3.90;;
14181;SDS011;7171;50.936;6.764;2022-10-31T03:22:45;5.70;;;3.88;;
14181;SDS011;7171;50.936;6.764;2022-10-31T03:25:12;4.57;;;3.58;;
14181;SDS011;7171;50.936;6.764;2022-10-31T03:27:40;8.35;;;3.85;;
14181;SDS011;7171;50.936;6.764;2022-10-31T03:30:09;3.97;;;2.58;;
14181;SDS011;7171;50.936;6.764;2022-10-31T03:32:38;6.88;;;3.80;;
14181;SDS011;7171;50.936;6.764;2022-10-31T03:35:08;4.55;;;3.05;;
14181;SDS011;7171;50.936;6.764;2022-10-31T03:37:39;4.50;;;2.97;;
14181;SDS011;7171;50.936;6.764;2022-10-31T03:40:09;6.90;;;3.30;;
14181;SDS011;7171;50.936;6.764;2022-10-31T03:42:39;3.78;;;2.65;;
14181;SDS011;7171;50.936;6.764;2022-10-31T03:45:10;4.93;;;2.60;;
14181;SDS011;7171;50.936;6.764;2022-10-31T03:47:39;3.90;;;2.85;;
14181;SDS011;7171;50.936;6.764;2022-10-31T03:50:09;5.38;;;3.20;;
14181;SDS011;7171;50.936;6.764;2022-10-31T03:52:40;6.10;;;2.67;;
14181;SDS011;7171;50.936;6.764;2022-10-31T03:55:12;3.45;;;2.58;;
14181;SDS011;7171;50.936;6.764;2022-10-31T03:57:44;6.70;;;2.92;;
14181;SDS011;7171;50.936;6.764;2022-10-31T04:00:17;4.05;;;2.85;;
14181;SDS011;7171;50.936;6.764;2022-10-31T04:02:47;6.82;;;3.10;;
14181;SDS011;7171;50.936;6.764;2022-10-31T04:05:17;3.15;;;2.55;;
14181;SDS011;7171;50.936;6.764;2022-10-31T04:07:46;3.28;;;2.58;;
14181;SDS011;7171;50.936;6.764;2022-10-31T04:10:17;4.05;;;2.88;;
14181;SDS011;7171;50.936;6.764;2022-10-31T04:12:47;4.05;;;2.80;;
14181;SDS011;7171;50.936;6.764;2022-10-31T04:15:17;7.45;;;3.17;;
14181;SDS011;7171;50.936;6.764;2022-10-31T04:17:48;3.03;;;2.42;;
14181;SDS011;7171;50.936;6.764;2022-10-31T04:20:18;5.30;;;2.88;;
14181;SDS011;7171;50.936;6.764;2022-10-31T04:22:55;3.78;;;2.80;;
14181;SDS011;7171;50.936;6.764;2022-10-31T04:25:21;5.35;;;3.13;;
14181;SDS011;7171;50.936;6.764;2022-10-31T04:27:48;4.68;;;2.75;;
14181;SDS011;7171;50.936;6.764;2022-10-31T04:30:15;4.68;;;3.45;;
14181;SDS011;7171;50.936;6.764;2022-10-31T04:32:41;5.38;;;3.28;;
14181;SDS011;7171;50.936;6.764;2022-10-31T04:35:09;5.82;;;2.72;;
14181;SDS011;7171;50.936;6.764;2022-10-31T04:37:36;5.90;;;3.17;;
14181;SDS011;7171;50.936;6.764;2022-10-31T04:40:03;3.28;;;2.60;;
14181;SDS011;7171;50.936;6.764;2022-10-31T04:42:31;5.20;;;3.40;;
14181;SDS011;7171;50.936;6.764;2022-10-31T04:44:57;3.88;;;2.92;;
14181;SDS011;7171;50.936;6.764;2022-10-31T04:47:24;7.57;;;3.33;;
14181;SDS011;7171;50.936;6.764;2022-10-31T04:49:51;4.50;;;3.13;;
14181;SDS011;7171;50.936;6.764;2022-10-31T04:52:19;3.30;;;2.92;;
14181;SDS011;7171;50.936;6.764;2022-10-31T04:54:45;3.67;;;3.33;;
14181;SDS011;7171;50.936;6.764;2022-10-31T04:57:12;4.13;;;2.97;;
14181;SDS011;7171;50.936;6.764;2022-10-31T04:59:39;4.88;;;2.75;;
14181;SDS011;7171;50.936;6.764;2022-10-31T05:02:05;7.25;;;2.97;;
14181;SDS011;7171;50.936;6.764;2022-10-31T05:04:32;3.40;;;2.42;;
14181;SDS011;7171;50.936;6.764;2022-10-31T05:06:58;3.95;;;2.15;;
14181;SDS011;7171;50.936;6.764;2022-10-31T05:09:26;5.97;;;2.97;;
14181;SDS011;7171;50.936;6.764;2022-10-31T05:11:53;4.13;;;3.20;;
14181;SDS011;7171;50.936;6.764;2022-10-31T05:14:20;3.03;;;2.22;;
14181;SDS011;7171;50.936;6.764;2022-10-31T05:16:46;3.35;;;2.65;;
14181;SDS011;7171;50.936;6.764;2022-10-31T05:19:13;2.70;;;2.05;;
14181;SDS011;7171;50.936;6.764;2022-10-31T05:21:40;3.22;;;2.60;;
14181;SDS011;7171;50.936;6.764;2022-10-31T05:24:07;5.13;;;3.00;;
14181;SDS011;7171;50.936;6.764;2022-10-31T05:26:35;3.65;;;2.40;;
14181;SDS011;7171;50.936;6.764;2022-10-31T05:29:01;3.83;;;2.78;;
14181;SDS011;7171;50.936;6.764;2022-10-31T05:31:28;3.85;;;2.60;;
14181;SDS011;7171;50.936;6.764;2022-10-31T05:33:55;4.38;;;2.53;;
14181;SDS011;7171;50.936;6.764;2022-10-31T05:36:22;5.13;;;2.90;;
14181;SDS011;7171;50.936;6.764;2022-10-31T05:38:48;3.60;;;3.20;;
14181;SDS011;7171;50.936;6.764;2022-10-31T05:41:15;4.55;;;3.15;;
14181;SDS011;7171;50.936;6.764;2022-10-31T05:43:43;5.70;;;3.42;;
14181;SDS011;7171;50.936;6.764;2022-10-31T05:46:10;4.28;;;3.05;;
14181;SDS011;7171;50.936;6.764;2022-10-31T05:48:37;5.72;;;3.35;;
14181;SDS011;7171;50.936;6.764;2022-10-31T05:51:04;3.60;;;3.30;;
14181;SDS011;7171;50.936;6.764;2022-10-31T05:53:31;5.88;;;3.35;;
14181;SDS011;7171;50.936;6.764;2022-10-31T05:55:57;5.15;;;3.45;;
14181;SDS011;7171;50.936;6.764;2022-10-31T05:58:24;5.07;;;3.75;;
14181;SDS011;7171;50.936;6.764;2022-10-31T06:00:52;4.05;;;3.38;;
14181;SDS011;7171;50.936;6.764;2022-10-31T06:03:19;4.30;;;3.90;;
14181;SDS011;7171;50.936;6.764;2022-10-31T06:05:45;3.78;;;3.28;;
14181;SDS011;7171;50.936;6.764;2022-10-31T06:08:12;4.15;;;3.15;;
14181;SDS011;7171;50.936;6.764;2022-10-31T06:10:39;4.75;;;3.65;;
14181;SDS011;7171;50.936;6.764;2022-10-31T06:13:05;4.82;;;3.47;;
14181;SDS011;7171;50.936;6.764;2022-10-31T06:15:32;4.90;;;3.17;;
14181;SDS011;7171;50.936;6.764;2022-10-31T06:18:01;5.07;;;3.20;;
14181;SDS011;7171;50.936;6.764;2022-10-31T06:20:30;4.32;;;2.80;;
14181;SDS011;7171;50.936;6.764;2022-10-31T06:22:57;5.03;;;3.28;;
14181;SDS011;7171;50.936;6.764;2022-10-31T06:25:24;4.15;;;2.70;;
14181;SDS011;7171;50.936;6.764;2022-10-31T06:27:51;4.72;;;3.10;;
14181;SDS011;7171;50.936;6.764;2022-10-31T06:30:17;5.97;;;3.38;;
14181;SDS011;7171;50.936;6.764;2022-10-31T06:32:44;4.38;;;3.05;;
14181;SDS011;7171;50.936;6.764;2022-10-31T06:35:12;4.70;;;3.53;;
14181;SDS011;7171;50.936;6.764;2022-10-31T06:37:39;5.18;;;3.72;;
14181;SDS011;7171;50.936;6.764;2022-10-31T06:40:06;6.78;;;3.55;;
14181;SDS011;7171;50.936;6.764;2022-10-31T06:42:33;3.75;;;3.13;;
14181;SDS011;7171;50.936;6.764;2022-10-31T06:45:00;4.20;;;2.90;;
14181;SDS011;7171;50.936;6.764;2022-10-31T06:47:26;8.05;;;3.60;;
14181;SDS011;7171;50.936;6.764;2022-10-31T06:49:53;4.03;;;2.92;;
14181;SDS011;7171;50.936;6.764;2022-10-31T06:52:21;4.18;;;2.88;;
14181;SDS011;7171;50.936;6.764;2022-10-31T06:54:48;3.33;;;3.03;;
14181;SDS011;7171;50.936;6.764;2022-10-31T06:57:15;3.05;;;2.75;;
14181;SDS011;7171;50.936;6.764;2022-10-31T06:59:42;3.03;;;2.70;;
14181;SDS011;7171;50.936;6.764;2022-10-31T07:02:09;3.75;;;3.05;;
14181;SDS011;7171;50.936;6.764;2022-10-31T07:04:35;4.18;;;2.95;;
14181;SDS011;7171;50.936;6.764;2022-10-31T07:07:03;4.72;;;2.97;;
14181;SDS011;7171;50.936;6.764;2022-10-31T07:09:31;5.72;;;3.22;;
14181;SDS011;7171;50.936;6.764;2022-10-31T07:11:57;5.47;;;3.22;;
14181;SDS011;7171;50.936;6.764;2022-10-31T07:14:24;4.88;;;3.13;;
14181;SDS011;7171;50.936;6.764;2022-10-31T07:16:51;4.13;;;2.90;;
14181;SDS011;7171;50.936;6.764;2022-10-31T07:19:17;6.80;;;3.40;;
14181;SDS011;7171;50.936;6.764;2022-10-31T07:21:44;7.47;;;3.58;;
14181;SDS011;7171;50.936;6.764;2022-10-31T07:24:11;4.70;;;3.45;;
14181;SDS011;7171;50.936;6.764;2022-10-31T07:26:39;3.92;;;3.10;;
14181;SDS011;7171;50.936;6.764;2022-10-31T07:29:07;4.97;;;2.97;;
14181;SDS011;7171;50.936;6.764;2022-10-31T07:31:33;4.82;;;3.30;;
14181;SDS011;7171;50.936;6.764;2022-10-31T07:34:00;5.63;;;3.42;;
14181;SDS011;7171;50.936;6.764;2022-10-31T07:36:27;4.35;;;2.72;;
14181;SDS011;7171;50.936;6.764;2022-10-31T07:38:54;4.28;;;3.00;;
14181;SDS011;7171;50.936;6.764;2022-10-31T07:41:20;3.38;;;3.05;;
14181;SDS011;7171;50.936;6.764;2022-10-31T07:43:49;4.00;;;3.15;;
14181;SDS011;7171;50.936;6.764;2022-10-31T07:46:15;4.10;;;3.60;;
14181;SDS011;7171;50.936;6.764;2022-10-31T07:48:42;6.07;;;3.70;;
14181;SDS011;7171;50.936;6.764;2022-10-31T07:51:09;5.50;;;3.53;;
14181;SDS011;7171;50.936;6.764;2022-10-31T07:53:35;4.03;;;3.22;;
14181;SDS011;7171;50.936;6.764;2022-10-31T07:56:02;3.88;;;3.17;;
14181;SDS011;7171;50.936;6.764;2022-10-31T07:58:29;5.05;;;3.95;;
14181;SDS011;7171;50.936;6.764;2022-10-31T08:00:57;5.32;;;3.08;;
14181;SDS011;7171;50.936;6.764;2022-10-31T08:03:24;5.55;;;3.35;;
14181;SDS011;7171;50.936;6.764;2022-10-31T08:05:50;4.43;;;3.50;;
14181;SDS011;7171;50.936;6.764;2022-10-31T08:08:17;5.43;;;3.08;;
14181;SDS011;7171;50.936;6.764;2022-10-31T08:10:44;7.28;;;3.20;;
14181;SDS011;7171;50.936;6.764;2022-10-31T08:13:11;5.45;;;3.20;;
14181;SDS011;7171;50.936;6.764;2022-10-31T08:15:39;5.75;;;3.28;;
14181;SDS011;7171;50.936;6.764;2022-10-31T08:18:10;4.10;;;2.88;;
14181;SDS011;7171;50.936;6.764;2022-10-31T08:20:38;4.82;;;2.90;;
14181;SDS011;7171;50.936;6.764;2022-10-31T08:23:05;2.83;;;2.60;;
14181;SDS011;7171;50.936;6.764;2022-10-31T08:25:33;4.20;;;2.92;;
14181;SDS011;7171;50.936;6.764;2022-10-31T08:28:00;3.75;;;3.00;;
14181;SDS011;7171;50.936;6.764;2022-10-31T08:30:28;4.97;;;2.95;;
14181;SDS011;7171;50.936;6.764;2022-10-31T08:32:57;5.60;;;3.15;;
14181;SDS011;7171;50.936;6.764;2022-10-31T08:35:30;5.68;;;3.33;;
14181;SDS011;7171;50.936;6.764;2022-10-31T08:37:57;3.53;;;3.00;;
14181;SDS011;7171;50.936;6.764;2022-10-31T08:40:25;2.88;;;2.53;;
14181;SDS011;7171;50.936;6.764;2022-10-31T08:43:00;4.20;;;2.75;;
14181;SDS011;7171;50.936;6.764;2022-10-31T08:45:28;4.13;;;2.95;;
14181;SDS011;7171;50.936;6.764;2022-10-31T08:47:58;5.45;;;2.92;;
14181;SDS011;7171;50.936;6.764;2022-10-31T08:50:26;3.85;;;2.88;;
14181;SDS011;7171;50.936;6.764;2022-10-31T08:52:58;5.57;;;3.33;;
14181;SDS011;7171;50.936;6.764;2022-10-31T08:55:26;4.72;;;3.15;;
14181;SDS011;7171;50.936;6.764;2022-10-31T08:57:54;4.32;;;3.13;;
14181;SDS011;7171;50.936;6.764;2022-10-31T09:00:21;4.55;;;3.53;;
14181;SDS011;7171;50.936;6.764;2022-10-31T09:02:48;5.13;;;3.42;;
14181;SDS011;7171;50.936;6.764;2022-10-31T09:05:21;3.55;;;2.97;;
14181;SDS011;7171;50.936;6.764;2022-10-31T09:07:47;6.97;;;3.10;;
14181;SDS011;7171;50.936;6.764;2022-10-31T09:10:15;5.93;;;3.20;;
14181;SDS011;7171;50.936;6.764;2022-10-31T09:12:42;4.82;;;2.67;;
14181;SDS011;7171;50.936;6.764;2022-10-31T09:15:09;5.05;;;2.63;;
14181;SDS011;7171;50.936;6.764;2022-10-31T09:17:36;3.88;;;3.08;;
14181;SDS011;7171;50.936;6.764;2022-10-31T09:20:02;5.10;;;3.70;;
14181;SDS011;7171;50.936;6.764;2022-10-31T09:22:29;6.18;;;3.20;;
14181;SDS011;7171;50.936;6.764;2022-10-31T09:24:56;3.40;;;2.78;;
14181;SDS011;7171;50.936;6.764;2022-10-31T09:27:24;4.40;;;2.95;;
14181;SDS011;7171;50.936;6.764;2022-10-31T09:29:51;5.13;;;3.15;;
14181;SDS011;7171;50.936;6.764;2022-10-31T09:32:17;4.82;;;3.30;;
14181;SDS011;7171;50.936;6.764;2022-10-31T09:34:44;4.45;;;3.10;;
14181;SDS011;7171;50.936;6.764;2022-10-31T09:37:11;5.45;;;3.45;;
14181;SDS011;7171;50.936;6.764;2022-10-31T09:39:37;5.28;;;3.60;;
14181;SDS011;7171;50.936;6.764;2022-10-31T09:42:13;5.25;;;3.30;;
14181;SDS011;7171;50.936;6.764;2022-10-31T09:45:00;4.60;;;3.38;;
14181;SDS011;7171;50.936;6.764;2022-10-31T09:47:37;6.50;;;3.55;;
14181;SDS011;7171;50.936;6.764;2022-10-31T09:50:13;4.35;;;3.13;;
14181;SDS011;7171;50.936;6.764;2022-10-31T09:52:45;3.25;;;2.95;;
14181;SDS011;7171;50.936;6.764;2022-10-31T09:55:18;4.18;;;3.25;;
14181;SDS011;7171;50.936;6.764;2022-10-31T09:57:51;5.15;;;3.55;;
14181;SDS011;7171;50.936;6.764;2022-10-31T10:00:20;2.72;;;2.42;;
14181;SDS011;7171;50.936;6.764;2022-10-31T10:02:49;5.78;;;3.00;;
14181;SDS011;7171;50.936;6.764;2022-10-31T10:05:21;3.28;;;2.97;;
14181;SDS011;7171;50.936;6.764;2022-10-31T10:07:54;4.55;;;3.00;;
14181;SDS011;7171;50.936;6.764;2022-10-31T10:10:29;4.05;;;2.70;;
14181;SDS011;7171;50.936;6.764;2022-10-31T10:16:09;3.53;;;3.05;;
14181;SDS011;7171;50.936;6.764;2022-10-31T10:18:45;5.95;;;3.05;;
14181;SDS011;7171;50.936;6.764;2022-10-31T10:21:24;4.60;;;2.55;;
14181;SDS011;7171;50.936;6.764;2022-10-31T10:24:02;4.43;;;2.80;;
14181;SDS011;7171;50.936;6.764;2022-10-31T10:26:37;4.43;;;2.85;;
14181;SDS011;7171;50.936;6.764;2022-10-31T10:29:12;4.07;;;2.90;;
14181;SDS011;7171;50.936;6.764;2022-10-31T10:31:49;3.65;;;3.17;;
14181;SDS011;7171;50.936;6.764;2022-10-31T10:34:20;4.75;;;2.38;;
14181;SDS011;7171;50.936;6.764;2022-10-31T10:36:52;4.93;;;2.70;;
14181;SDS011;7171;50.936;6.764;2022-10-31T10:39:22;3.75;;;2.67;;
14181;SDS011;7171;50.936;6.764;2022-10-31T10:41:51;4.32;;;2.80;;
14181;SDS011;7171;50.936;6.764;2022-10-31T10:44:37;9.18;;;3.15;;
14181;SDS011;7171;50.936;6.764;2022-10-31T10:47:23;3.65;;;2.05;;
14181;SDS011;7171;50.936;6.764;2022-10-31T10:50:04;3.58;;;2.13;;
14181;SDS011;7171;50.936;6.764;2022-10-31T10:52:40;3.95;;;2.30;;
14181;SDS011;7171;50.936;6.764;2022-10-31T10:55:15;4.68;;;3.00;;
14181;SDS011;7171;50.936;6.764;2022-10-31T10:57:53;4.07;;;2.63;;
14181;SDS011;7171;50.936;6.764;2022-10-31T11:00:24;3.35;;;2.88;;
14181;SDS011;7171;50.936;6.764;2022-10-31T11:02:53;5.50;;;2.85;;
14181;SDS011;7171;50.936;6.764;2022-10-31T11:05:25;3.03;;;2.58;;
14181;SDS011;7171;50.936;6.764;2022-10-31T11:07:56;3.15;;;2.38;;
14181;SDS011;7171;50.936;6.764;2022-10-31T11:10:23;2.92;;;2.60;;
14181;SDS011;7171;50.936;6.764;2022-10-31T11:13:05;2.80;;;2.13;;
14181;SDS011;7171;50.936;6.764;2022-10-31T11:15:51;3.30;;;2.70;;
14181;SDS011;7171;50.936;6.764;2022-10-31T11:18:22;4.32;;;2.30;;
14181;SDS011;7171;50.936;6.764;2022-10-31T11:20:51;5.63;;;2.65;;
14181;SDS011;7171;50.936;6.764;2022-10-31T11:23:23;2.70;;;2.35;;
14181;SDS011;7171;50.936;6.764;2022-10-31T11:26:18;3.67;;;2.33;;
14181;SDS011;7171;50.936;6.764;2022-10-31T11:28:55;5.00;;;2.60;;
14181;SDS011;7171;50.936;6.764;2022-10-31T11:31:34;3.35;;;2.67;;
14181;SDS011;7171;50.936;6.764;2022-10-31T11:34:04;3.38;;;2.60;;
14181;SDS011;7171;50.936;6.764;2022-10-31T11:36:38;2.92;;;2.30;;
14181;SDS011;7171;50.936;6.764;2022-10-31T11:39:13;3.50;;;2.63;;
14181;SDS011;7171;50.936;6.764;2022-10-31T11:41:44;4.63;;;2.28;;
14181;SDS011;7171;50.936;6.764;2022-10-31T11:44:14;3.80;;;2.33;;
14181;SDS011;7171;50.936;6.764;2022-10-31T11:46:46;3.60;;;2.50;;
14181;SDS011;7171;50.936;6.764;2022-10-31T11:49:15;5.25;;;2.88;;
14181;SDS011;7171;50.936;6.764;2022-10-31T11:51:47;4.38;;;2.28;;
14181;SDS011;7171;50.936;6.764;2022-10-31T11:54:18;4.78;;;3.13;;
14181;SDS011;7171;50.936;6.764;2022-10-31T11:56:48;4.20;;;2.72;;
14181;SDS011;7171;50.936;6.764;2022-10-31T11:59:17;3.17;;;2.88;;
14181;SDS011;7171;50.936;6.764;2022-10-31T12:01:53;2.60;;;2.03;;
14181;SDS011;7171;50.936;6.764;2022-10-31T12:04:24;4.82;;;2.92;;
14181;SDS011;7171;50.936;6.764;2022-10-31T12:07:02;4.03;;;2.75;;
14181;SDS011;7171;50.936;6.764;2022-10-31T12:09:35;2.70;;;2.03;;
14181;SDS011;7171;50.936;6.764;2022-10-31T12:12:16;3.67;;;2.67;;
14181;SDS011;7171;50.936;6.764;2022-10-31T12:15:04;4.00;;;2.58;;
14181;SDS011;7171;50.936;6.764;2022-10-31T12:17:52;3.65;;;2.20;;
14181;SDS011;7171;50.936;6.764;2022-10-31T12:20:26;3.33;;;2.38;;
14181;SDS011;7171;50.936;6.764;2022-10-31T12:23:05;3.35;;;2.05;;
14181;SDS011;7171;50.936;6.764;2022-10-31T12:25:50;3.47;;;2.55;;
14181;SDS011;7171;50.936;6.764;2022-10-31T12:28:33;5.30;;;2.85;;
14181;SDS011;7171;50.936;6.764;2022-10-31T12:31:14;3.47;;;2.17;;
14181;SDS011;7171;50.936;6.764;2022-10-31T12:33:56;4.05;;;2.33;;
14181;SDS011;7171;50.936;6.764;2022-10-31T12:36:31;3.00;;;2.63;;
14181;SDS011;7171;50.936;6.764;2022-10-31T12:39:12;2.33;;;2.13;;
14181;SDS011;7171;50.936;6.764;2022-10-31T12:41:51;2.83;;;2.17;;
14181;SDS011;7171;50.936;6.764;2022-10-31T12:44:28;3.85;;;2.10;;
14181;SDS011;7171;50.936;6.764;2022-10-31T12:47:16;3.47;;;2.10;;
14181;SDS011;7171;50.936;6.764;2022-10-31T12:49:54;2.53;;;2.00;;
14181;SDS011;7171;50.936;6.764;2022-10-31T12:52:35;2.65;;;2.28;;
14181;SDS011;7171;50.936;6.764;2022-10-31T12:55:16;3.35;;;2.05;;
14181;SDS011;7171;50.936;6.764;2022-10-31T12:57:54;2.78;;;2.10;;
14181;SDS011;7171;50.936;6.764;2022-10-31T13:00:25;3.92;;;2.20;;
14181;SDS011;7171;50.936;6.764;2022-10-31T13:02:54;6.93;;;2.00;;
14181;SDS011;7171;50.936;6.764;2022-10-31T13:05:26;5.85;;;2.42;;
14181;SDS011;7171;50.936;6.764;2022-10-31T13:07:57;2.13;;;1.92;;
14181;SDS011;7171;50.936;6.764;2022-10-31T13:10:29;1.88;;;1.75;;
14181;SDS011;7171;50.936;6.764;2022-10-31T13:13:02;2.55;;;2.10;;
14181;SDS011;7171;50.936;6.764;2022-10-31T13:15:34;2.97;;;1.70;;
14181;SDS011;7171;50.936;6.764;2022-10-31T13:18:10;4.72;;;2.30;;
14181;SDS011;7171;50.936;6.764;2022-10-31T13:20:43;2.88;;;2.10;;
14181;SDS011;7171;50.936;6.764;2022-10-31T13:23:14;3.80;;;1.83;;
14181;SDS011;7171;50.936;6.764;2022-10-31T13:25:48;2.72;;;2.15;;
14181;SDS011;7171;50.936;6.764;2022-10-31T13:28:21;2.10;;;1.80;;
14181;SDS011;7171;50.936;6.764;2022-10-31T13:30:53;4.22;;;2.20;;
14181;SDS011;7171;50.936;6.764;2022-10-31T13:33:21;2.63;;;2.00;;
14181;SDS011;7171;50.936;6.764;2022-10-31T13:35:56;3.67;;;2.20;;
14181;SDS011;7171;50.936;6.764;2022-10-31T13:38:33;3.97;;;2.10;;
14181;SDS011;7171;50.936;6.764;2022-10-31T13:41:04;2.33;;;1.70;;
14181;SDS011;7171;50.936;6.764;2022-10-31T13:43:42;4.53;;;2.25;;
14181;SDS011;7171;50.936;6.764;2022-10-31T13:46:26;3.78;;;2.15;;
14181;SDS011;7171;50.936;6.764;2022-10-31T13:49:01;6.32;;;2.38;;
14181;SDS011;7171;50.936;6.764;2022-10-31T13:51:30;5.13;;;2.15;;
14181;SDS011;7171;50.936;6.764;2022-10-31T13:53:59;2.00;;;1.88;;
14181;SDS011;7171;50.936;6.764;2022-10-31T13:56:28;3.70;;;2.13;;
14181;SDS011;7171;50.936;6.764;2022-10-31T13:58:57;3.67;;;1.85;;
14181;SDS011;7171;50.936;6.764;2022-10-31T14:01:27;3.67;;;1.85;;
14181;SDS011;7171;50.936;6.764;2022-10-31T14:04:02;2.15;;;1.85;;
14181;SDS011;7171;50.936;6.764;2022-10-31T14:06:36;2.50;;;2.05;;
14181;SDS011;7171;50.936;6.764;2022-10-31T14:09:05;1.75;;;1.65;;
14181;SDS011;7171;50.936;6.764;2022-10-31T14:11:44;2.42;;;1.80;;
14181;SDS011;7171;50.936;6.764;2022-10-31T14:14:12;3.38;;;2.13;;
14181;SDS011;7171;50.936;6.764;2022-10-31T14:16:40;2.22;;;2.03;;
14181;SDS011;7171;50.936;6.764;2022-10-31T14:19:13;4.70;;;2.35;;
14181;SDS011;7171;50.936;6.764;2022-10-31T14:21:44;3.20;;;1.63;;
14181;SDS011;7171;50.936;6.764;2022-10-31T14:24:28;2.67;;;2.00;;
14181;SDS011;7171;50.936;6.764;2022-10-31T14:26:58;1.67;;;1.58;;
14181;SDS011;7171;50.936;6.764;2022-10-31T14:29:27;1.75;;;1.27;;
14181;SDS011;7171;50.936;6.764;2022-10-31T14:31:56;1.65;;;1.52;;
14181;SDS011;7171;50.936;6.764;2022-10-31T14:34:36;2.72;;;1.88;;
14181;SDS011;7171;50.936;6.764;2022-10-31T14:45:55;3.78;;;1.80;;
14181;SDS011;7171;50.936;6.764;2022-10-31T14:51:18;3.90;;;2.33;;
14181;SDS011;7171;50.936;6.764;2022-10-31T14:53:48;1.75;;;1.42;;
14181;SDS011;7171;50.936;6.764;2022-10-31T14:56:19;1.80;;;1.45;;
14181;SDS011;7171;50.936;6.764;2022-10-31T14:58:49;1.80;;;1.40;;
14181;SDS011;7171;50.936;6.764;2022-10-31T15:01:18;1.90;;;1.67;;
14181;SDS011;7171;50.936;6.764;2022-10-31T15:03:48;3.13;;;1.50;;
14181;SDS011;7171;50.936;6.764;2022-10-31T15:06:15;2.00;;;1.70;;
14181;SDS011;7171;50.936;6.764;2022-10-31T15:08:45;3.25;;;1.95;;
14181;SDS011;7171;50.936;6.764;2022-10-31T15:11:14;5.35;;;1.90;;
14181;SDS011;7171;50.936;6.764;2022-10-31T15:13:43;3.70;;;1.90;;
14181;SDS011;7171;50.936;6.764;2022-10-31T15:16:11;1.70;;;1.50;;
14181;SDS011;7171;50.936;6.764;2022-10-31T15:18:53;3.15;;;1.80;;
14181;SDS011;7171;50.936;6.764;2022-10-31T15:21:22;2.08;;;1.70;;
14181;SDS011;7171;50.936;6.764;2022-10-31T15:23:53;1.88;;;1.50;;
14181;SDS011;7171;50.936;6.764;2022-10-31T15:26:23;1.83;;;1.60;;
14181;SDS011;7171;50.936;6.764;2022-10-31T15:29:00;2.53;;;1.85;;
14181;SDS011;7171;50.936;6.764;2022-10-31T15:31:28;2.50;;;1.60;;
14181;SDS011;7171;50.936;6.764;2022-10-31T15:33:58;4.13;;;2.00;;
14181;SDS011;7171;50.936;6.764;2022-10-31T15:36:28;1.90;;;1.80;;
14181;SDS011;7171;50.936;6.764;2022-10-31T15:38:55;2.05;;;1.52;;